createdAt,value
2023-05-02T00:00:03.348Z,62.1396
2023-05-02T00:01:07.374Z,64.9383
2023-05-02T00:02:11.439Z,63.9456
2023-05-02T00:03:15.408Z,54.0750
2023-05-02T00:04:19.383Z,53.8180
2023-05-02T00:05:23.550Z,58.4149
2023-05-02T00:06:27.504Z,62.2932
2023-05-02T00:07:31.419Z,65.1484
2023-05-02T00:08:35.330Z,64.4259
2023-05-02T00:09:39.240Z,55.3588
2023-05-02T00:10:43.140Z,55.8117
2023-05-02T00:11:47.039Z,59.9841
2023-05-02T00:12:50.938Z,63.4763
2023-05-02T00:13:54.824Z,65.9357
2023-05-02T00:14:59.490Z,64.1036
2023-05-02T00:16:03.380Z,53.4454
2023-05-02T00:17:07.338Z,52.7235
2023-05-02T00:18:11.252Z,57.4197
2023-05-02T00:19:15.150Z,61.5379
2023-05-02T00:20:19.131Z,64.6852
2023-05-02T00:21:23.034Z,64.6732
2023-05-02T00:22:26.921Z,54.6296
2023-05-02T00:23:30.814Z,52.2199
2023-05-02T00:24:34.700Z,56.5962
2023-05-02T00:25:38.596Z,60.6807
2023-05-02T00:26:42.475Z,63.9026
2023-05-02T00:27:46.378Z,64.8535
2023-05-02T00:28:50.272Z,55.4767
2023-05-02T00:29:50.732Z,50.2126
2023-05-02T00:30:54.647Z,54.2403
2023-05-02T00:31:58.556Z,58.7147
2023-05-02T00:33:02.493Z,62.3717
2023-05-02T00:34:06.358Z,64.8477
2023-05-02T00:35:10.257Z,58.6793
2023-05-02T00:36:14.152Z,51.8100
2023-05-02T00:37:18.060Z,55.2993
2023-05-02T00:38:21.934Z,59.7997
2023-05-02T00:39:25.822Z,63.3260
2023-05-02T00:40:29.810Z,65.6336
2023-05-02T00:41:33.692Z,60.5758
2023-05-02T00:42:37.606Z,57.6802
2023-05-02T00:43:41.510Z,61.2543
2023-05-02T00:44:45.407Z,64.3915
2023-05-02T00:45:49.325Z,66.4816
2023-05-02T00:46:53.386Z,66.7817
2023-05-02T00:47:57.385Z,56.6947
2023-05-02T00:49:01.319Z,49.2025
2023-05-02T00:50:05.272Z,52.6967
2023-05-02T00:51:09.165Z,57.6623
2023-05-02T00:52:13.047Z,61.7702
2023-05-02T00:53:16.964Z,64.9220
2023-05-02T00:54:20.873Z,61.0434
2023-05-02T00:55:24.791Z,55.8847
2023-05-02T00:56:28.692Z,59.1405
2023-05-02T00:57:32.601Z,62.6881
2023-05-02T00:58:36.512Z,65.3500
2023-05-02T00:59:40.444Z,66.8186
2023-05-02T01:00:44.330Z,58.7618
2023-05-02T01:01:48.286Z,49.0311
2023-05-02T01:02:52.319Z,50.8053
2023-05-02T01:03:56.350Z,55.9949
2023-05-02T01:05:00.254Z,60.3579
2023-05-02T01:06:04.254Z,63.8123
2023-05-02T01:07:08.102Z,62.8537
2023-05-02T01:08:12.127Z,56.5158
2023-05-02T01:09:16.002Z,59.1376
2023-05-02T01:10:19.899Z,62.7774
2023-05-02T01:11:23.812Z,65.4214
2023-05-02T01:12:27.708Z,67.2543
2023-05-02T01:13:31.626Z,61.2829
2023-05-02T01:14:35.520Z,50.9595
2023-05-02T01:15:39.453Z,51.9789
2023-05-02T01:16:43.408Z,56.8741
2023-05-02T01:17:47.338Z,61.0666
2023-05-02T01:18:51.219Z,64.3842
2023-05-02T01:19:55.107Z,63.5200
2023-05-02T01:20:59.001Z,53.2758
2023-05-02T01:22:02.958Z,52.3248
2023-05-02T01:23:07.206Z,56.9589
2023-05-02T01:24:11.103Z,61.0756
2023-05-02T01:25:15.010Z,64.2445
2023-05-02T01:26:18.913Z,64.4519
2023-05-02T01:27:22.831Z,54.8391
2023-05-02T01:28:26.747Z,53.3543
2023-05-02T01:29:30.658Z,57.7072
2023-05-02T01:30:34.568Z,61.6477
2023-05-02T01:31:38.593Z,64.6315
2023-05-02T01:32:42.783Z,64.7418
2023-05-02T01:33:46.667Z,54.4778
2023-05-02T01:34:50.565Z,49.5030
2023-05-02T01:35:54.525Z,53.8286
2023-05-02T01:36:58.416Z,58.4567
2023-05-02T01:38:02.333Z,62.2433
2023-05-02T01:39:06.212Z,64.7555
2023-05-02T01:40:10.133Z,58.0933
2023-05-02T01:41:14.023Z,52.1683
2023-05-02T01:42:17.942Z,55.8232
2023-05-02T01:43:21.856Z,60.0272
2023-05-02T01:44:25.729Z,63.3716
2023-05-02T01:45:29.622Z,65.4724
2023-05-02T01:46:33.577Z,58.8644
2023-05-02T01:47:37.512Z,51.0017
2023-05-02T01:48:41.416Z,54.0880
2023-05-02T01:49:45.316Z,58.7137
2023-05-02T01:50:49.239Z,62.5041
2023-05-02T01:51:53.162Z,65.2060
2023-05-02T01:52:57.093Z,60.7697
2023-05-02T01:54:00.968Z,51.7084
2023-05-02T01:55:04.866Z,53.7870
2023-05-02T01:56:08.748Z,58.3436
2023-05-02T01:57:12.650Z,62.1551
2023-05-02T01:58:16.771Z,64.9666
2023-05-02T01:59:20.649Z,62.1190
2023-05-02T02:00:24.783Z,52.4790
2023-05-02T02:01:28.699Z,53.7357
2023-05-02T02:02:32.586Z,58.3141
2023-05-02T02:03:36.578Z,62.1653
2023-05-02T02:04:40.628Z,65.0097
2023-05-02T02:05:41.605Z,63.3231
2023-05-02T02:06:45.624Z,54.8495
2023-05-02T02:07:49.896Z,56.4743
2023-05-02T02:08:53.782Z,60.7096
2023-05-02T02:09:57.805Z,64.0161
2023-05-02T02:11:01.795Z,66.2549
2023-05-02T02:12:05.712Z,62.9905
2023-05-02T02:13:09.624Z,53.1040
2023-05-02T02:14:13.536Z,54.1826
2023-05-02T02:15:17.444Z,58.6688
2023-05-02T02:16:21.416Z,62.4866
2023-05-02T02:17:25.676Z,65.3363
2023-05-02T02:18:29.851Z,63.4257
2023-05-02T02:19:33.746Z,53.0704
2023-05-02T02:20:37.644Z,52.7868
2023-05-02T02:21:41.519Z,57.5456
2023-05-02T02:22:45.646Z,61.6366
2023-05-02T02:23:49.563Z,64.7412
2023-05-02T02:24:54.405Z,64.4375
2023-05-02T02:25:58.495Z,56.0690
2023-05-02T02:27:02.388Z,57.2410
2023-05-02T02:28:06.280Z,61.2072
2023-05-02T02:29:10.184Z,64.3649
2023-05-02T02:30:14.119Z,66.5357
2023-05-02T02:31:18.093Z,63.5256
2023-05-02T02:32:21.956Z,52.7494
2023-05-02T02:33:25.840Z,52.4141
2023-05-02T02:34:29.726Z,57.1948
2023-05-02T02:35:33.615Z,61.2409
2023-05-02T02:36:37.521Z,64.4583
2023-05-02T02:37:41.404Z,64.4599
2023-05-02T02:38:45.291Z,54.8969
2023-05-02T02:39:49.174Z,54.1655
2023-05-02T02:40:53.051Z,58.6839
2023-05-02T02:41:56.937Z,62.5616
2023-05-02T02:43:00.848Z,65.3943
2023-05-02T02:44:04.726Z,64.9696
2023-05-02T02:45:09.570Z,56.0958
2023-05-02T02:46:13.489Z,56.6393
2023-05-02T02:47:17.350Z,60.7627
2023-05-02T02:48:21.233Z,64.1207
2023-05-02T02:49:25.147Z,66.4486
2023-05-02T02:50:29.025Z,64.2385
2023-05-02T02:51:32.961Z,53.4245
2023-05-02T02:52:37.095Z,52.3251
2023-05-02T02:53:41.001Z,57.0041
2023-05-02T02:54:44.928Z,61.1413
2023-05-02T02:55:49.593Z,64.4115
2023-05-02T02:56:53.485Z,64.7502
2023-05-02T02:57:57.378Z,54.5666
2023-05-02T02:59:01.272Z,50.5270
2023-05-02T03:00:05.390Z,55.0134
2023-05-02T03:01:09.300Z,59.4471
2023-05-02T03:02:13.221Z,63.0238
2023-05-02T03:03:17.169Z,65.0991
2023-05-02T03:04:21.155Z,57.4365
2023-05-02T03:05:25.667Z,52.4111
2023-05-02T03:06:29.627Z,56.3296
2023-05-02T03:07:33.626Z,60.4547
2023-05-02T03:08:37.544Z,63.7108
2023-05-02T03:09:41.454Z,65.5419
2023-05-02T03:10:45.354Z,57.9161
2023-05-02T03:11:49.267Z,49.9742
2023-05-02T03:12:53.188Z,53.0924
2023-05-02T03:13:57.097Z,57.7966
2023-05-02T03:15:01.259Z,61.7087
2023-05-02T03:16:05.181Z,64.6749
2023-05-02T03:17:09.172Z,60.8932
2023-05-02T03:18:13.083Z,51.8238
2023-05-02T03:19:17.279Z,53.8897
2023-05-02T03:20:21.167Z,58.5259
2023-05-02T03:21:25.069Z,62.2712
2023-05-02T03:22:28.954Z,65.0187
2023-05-02T03:23:32.835Z,62.5120
2023-05-02T03:24:36.710Z,57.5621
2023-05-02T03:25:40.614Z,60.6993
2023-05-02T03:26:44.514Z,64.0385
2023-05-02T03:27:48.405Z,66.2903
2023-05-02T03:28:52.396Z,67.5659
2023-05-02T03:29:56.300Z,59.6212
2023-05-02T03:31:00.326Z,49.3613
2023-05-02T03:32:04.407Z,50.4335
2023-05-02T03:33:08.417Z,55.6792
2023-05-02T03:34:12.305Z,60.0220
2023-05-02T03:35:16.196Z,63.5325
2023-05-02T03:36:20.090Z,63.3723
2023-05-02T03:37:24.003Z,53.6457
2023-05-02T03:38:27.913Z,53.0703
2023-05-02T03:39:31.824Z,57.6069
2023-05-02T03:40:35.713Z,61.5697
2023-05-02T03:41:39.595Z,64.5596
2023-05-02T03:42:43.493Z,64.4287
2023-05-02T03:43:47.376Z,54.9988
2023-05-02T03:44:51.276Z,54.6696
2023-05-02T03:45:55.154Z,59.0307
2023-05-02T03:46:59.125Z,62.6948
2023-05-02T03:48:03.135Z,65.4025
2023-05-02T03:49:07.003Z,64.6200
2023-05-02T03:50:07.411Z,53.9816
2023-05-02T03:51:11.308Z,49.1448
2023-05-02T03:52:15.198Z,53.5099
2023-05-02T03:53:19.094Z,58.1978
2023-05-02T03:54:22.984Z,62.0621
2023-05-02T03:55:26.878Z,64.7619
2023-05-02T03:56:30.749Z,58.4895
2023-05-02T03:57:34.690Z,50.8459
2023-05-02T03:58:38.546Z,53.9551
2023-05-02T03:59:42.419Z,58.4884
2023-05-02T04:00:46.316Z,62.2327
2023-05-02T04:01:50.318Z,64.9514
2023-05-02T04:02:54.548Z,60.5133
2023-05-02T04:03:58.512Z,50.9230
2023-05-02T04:05:02.391Z,52.4595
2023-05-02T04:06:06.285Z,57.1509
2023-05-02T04:07:10.170Z,61.1215
2023-05-02T04:08:14.044Z,64.1922
2023-05-02T04:09:17.929Z,62.5454
2023-05-02T04:10:21.824Z,51.7574
2023-05-02T04:11:25.790Z,49.4239
2023-05-02T04:12:29.632Z,54.3690
2023-05-02T04:13:33.523Z,58.9039
2023-05-02T04:14:37.442Z,62.5607
2023-05-02T04:15:41.351Z,64.3005
2023-05-02T04:16:45.302Z,56.7998
2023-05-02T04:17:49.264Z,55.7772
2023-05-02T04:18:53.146Z,59.8732
2023-05-02T04:19:57.037Z,63.3121
2023-05-02T04:21:00.941Z,65.6728
2023-05-02T04:22:04.869Z,65.1749
2023-05-02T04:23:04.965Z,54.8849
2023-05-02T04:24:08.872Z,51.7465
2023-05-02T04:25:12.780Z,56.2287
2023-05-02T04:26:16.689Z,60.5625
2023-05-02T04:27:20.586Z,64.0134
2023-05-02T04:28:24.531Z,65.6594
2023-05-02T04:29:28.421Z,57.3367
2023-05-02T04:30:32.325Z,53.2334
2023-05-02T04:31:36.276Z,57.3055
2023-05-02T04:32:40.277Z,61.3317
2023-05-02T04:33:44.185Z,64.4545
2023-05-02T04:34:48.051Z,65.8344
2023-05-02T04:35:52.213Z,57.1490
2023-05-02T04:36:56.117Z,50.1000
2023-05-02T04:38:00.256Z,53.8311
2023-05-02T04:39:04.173Z,58.5243
2023-05-02T04:40:08.109Z,62.3094
2023-05-02T04:41:12.007Z,65.0865
2023-05-02T04:42:15.914Z,60.0854
2023-05-02T04:43:19.822Z,50.9663
2023-05-02T04:44:23.735Z,53.1146
2023-05-02T04:45:27.873Z,57.8719
2023-05-02T04:46:31.886Z,61.8047
2023-05-02T04:47:35.824Z,64.7405
2023-05-02T04:48:39.723Z,62.1140
2023-05-02T04:49:43.621Z,53.9911
2023-05-02T04:50:47.509Z,56.3573
2023-05-02T04:51:51.407Z,60.6635
2023-05-02T04:52:55.317Z,63.9892
2023-05-02T04:53:59.235Z,66.2197
2023-05-02T04:55:03.133Z,62.0807
2023-05-02T04:56:07.013Z,54.3742
2023-05-02T04:57:11.040Z,57.1701
2023-05-02T04:58:14.964Z,61.2801
2023-05-02T04:59:18.866Z,64.4905
2023-05-02T05:00:19.268Z,66.6050
2023-05-02T05:01:23.180Z,61.8649
2023-05-02T05:02:27.302Z,51.7510
2023-05-02T05:03:31.338Z,52.9085
2023-05-02T05:04:35.232Z,57.6358
2023-05-02T05:05:39.254Z,61.6542
2023-05-02T05:06:43.259Z,64.7999
2023-05-02T05:07:47.125Z,63.4863
2023-05-02T05:08:51.011Z,52.8529
2023-05-02T05:09:54.940Z,51.1365
2023-05-02T05:10:59.125Z,55.8558
2023-05-02T05:12:03.037Z,60.1478
2023-05-02T05:13:07.183Z,63.5697
2023-05-02T05:14:11.111Z,64.5500
2023-05-02T05:15:15.008Z,55.0567
2023-05-02T05:16:18.981Z,50.3321
2023-05-02T05:17:22.920Z,54.6030
2023-05-02T05:18:26.793Z,59.1244
2023-05-02T05:19:30.681Z,62.7654
2023-05-02T05:20:34.562Z,64.8277
2023-05-02T05:23:09.552Z,46.3877
2023-05-02T05:24:11.308Z,40.8016
2023-05-02T05:25:13.017Z,36.4067
2023-05-02T05:26:14.720Z,39.8626
2023-05-02T05:27:16.481Z,46.5449
2023-05-02T05:28:18.187Z,51.9678
2023-05-02T05:29:19.900Z,56.4874
2023-05-02T05:30:21.627Z,59.2266
2023-05-02T05:31:23.348Z,55.2459
2023-05-02T05:32:25.109Z,57.2545
2023-05-02T05:33:26.907Z,60.9475
2023-05-02T05:34:28.530Z,64.0511
2023-05-02T05:35:30.248Z,66.6175
2023-05-02T05:36:31.937Z,64.7414
2023-05-02T05:37:33.653Z,54.0366
2023-05-02T05:38:35.377Z,52.4708
2023-05-02T05:39:37.111Z,56.7201
2023-05-02T05:40:38.820Z,60.6656
2023-05-02T05:41:40.542Z,63.9291
2023-05-02T05:42:42.261Z,65.5661
2023-05-02T05:43:43.970Z,57.4674
2023-05-02T05:44:45.736Z,53.6436
2023-05-02T05:45:47.440Z,57.3824
2023-05-02T05:46:50.024Z,61.2337
2023-05-02T05:47:50.921Z,64.2825
2023-05-02T05:48:52.603Z,66.2370
2023-05-02T05:49:54.321Z,59.3689
2023-05-02T05:50:56.031Z,51.8860
2023-05-02T05:51:57.762Z,54.6452
2023-05-02T05:52:59.482Z,58.8831
2023-05-02T05:54:01.191Z,62.4714
2023-05-02T05:55:02.885Z,65.2098
2023-05-02T05:56:04.609Z,62.5123
2023-05-02T05:57:06.339Z,52.2828
2023-05-02T05:58:08.060Z,51.7020
2023-05-02T05:59:09.784Z,56.1167
2023-05-02T06:00:11.503Z,60.1119
2023-05-02T06:01:13.215Z,63.3526
2023-05-02T06:02:15.001Z,64.5848
2023-05-02T06:03:16.705Z,55.7741
2023-05-02T06:04:18.367Z,48.6446
2023-05-02T06:05:20.105Z,51.8361
2023-05-02T06:06:21.894Z,56.4584
2023-05-02T06:07:23.533Z,60.3513
2023-05-02T06:08:25.264Z,63.4496
2023-05-02T06:09:26.979Z,61.8428
2023-05-02T06:10:28.787Z,51.4560
2023-05-02T06:11:30.415Z,48.4055
2023-05-02T06:12:32.139Z,52.8480
2023-05-02T06:13:33.854Z,57.2508
2023-05-02T06:14:35.586Z,60.9641
2023-05-02T06:15:37.365Z,63.6260
2023-05-02T06:16:39.128Z,58.0710
2023-05-02T06:17:40.747Z,49.3525
2023-05-02T06:18:42.428Z,51.0628
2023-05-02T06:19:44.151Z,55.7004
2023-05-02T06:20:45.892Z,59.5998
2023-05-02T06:21:47.619Z,62.7606
2023-05-02T06:22:49.338Z,62.8617
2023-05-02T06:23:51.053Z,53.7233
2023-05-02T06:24:52.768Z,52.1071
2023-05-02T06:25:54.494Z,56.3722
2023-05-02T06:26:56.231Z,60.3557
2023-05-02T06:27:57.939Z,63.4140
2023-05-02T06:28:59.664Z,64.8836
2023-05-02T06:30:01.623Z,57.6385
2023-05-02T06:31:03.190Z,55.4960
2023-05-02T06:32:04.874Z,57.9767
2023-05-02T06:33:06.584Z,61.6110
2023-05-02T06:34:08.246Z,64.2593
2023-05-02T06:35:09.992Z,65.5226
2023-05-02T06:36:11.661Z,57.4039
2023-05-02T06:37:13.391Z,48.6993
2023-05-02T06:38:15.106Z,50.6115
2023-05-02T06:39:16.827Z,55.3649
2023-05-02T06:40:18.537Z,59.4320
2023-05-02T06:41:20.299Z,62.7854
2023-05-02T06:42:21.986Z,62.9447
2023-05-02T06:43:23.710Z,53.1333
2023-05-02T06:44:25.469Z,48.0146
2023-05-02T06:45:27.165Z,51.9808
2023-05-02T06:46:28.895Z,56.5327
2023-05-02T06:47:30.701Z,60.3644
2023-05-02T06:48:32.319Z,63.3381
2023-05-02T06:49:34.032Z,59.9674
2023-05-02T06:50:35.775Z,51.8517
2023-05-02T06:51:37.503Z,53.8128
2023-05-02T06:52:39.205Z,58.0553
2023-05-02T06:53:40.970Z,61.6249
2023-05-02T06:54:42.659Z,64.2630
2023-05-02T06:55:44.379Z,63.0081
2023-05-02T06:56:46.111Z,53.0923
2023-05-02T06:57:47.822Z,51.4401
2023-05-02T06:58:49.556Z,55.7471
2023-05-02T06:59:51.308Z,59.7750
2023-05-02T07:00:53.005Z,63.0257
2023-05-02T07:01:54.717Z,64.6784
2023-05-02T07:02:56.487Z,57.0327
2023-05-02T07:03:58.196Z,52.1262
2023-05-02T07:04:59.883Z,55.7720
2023-05-02T07:06:01.684Z,59.8109
2023-05-02T07:07:03.333Z,63.0946
2023-05-02T07:08:05.053Z,65.3151
2023-05-02T07:09:06.784Z,60.0979
2023-05-02T07:10:08.505Z,53.0585
2023-05-02T07:11:10.241Z,55.8288
2023-05-02T07:12:11.935Z,59.8990
2023-05-02T07:13:13.653Z,63.1976
2023-05-02T07:14:15.378Z,65.5551
2023-05-02T07:15:17.065Z,62.3420
2023-05-02T07:16:18.846Z,52.4949
2023-05-02T07:17:20.540Z,52.7538
2023-05-02T07:18:22.236Z,57.1648
2023-05-02T07:19:23.954Z,60.9669
2023-05-02T07:20:25.743Z,63.9846
2023-05-02T07:21:27.419Z,59.4074
2023-05-02T07:22:29.115Z,49.2890
2023-05-02T07:23:30.847Z,48.0137
2023-05-02T07:24:32.568Z,47.7038
2023-05-02T07:25:34.279Z,47.5763
2023-05-02T07:26:35.996Z,47.4711
2023-05-02T07:27:37.742Z,47.4533
2023-05-02T07:28:39.453Z,47.4147
2023-05-02T07:29:41.183Z,47.3992
2023-05-02T07:30:42.891Z,47.4431
2023-05-02T07:31:44.668Z,47.3578
2023-05-02T07:32:46.393Z,47.3735
2023-05-02T07:33:48.065Z,47.3068
2023-05-02T07:34:49.758Z,47.2376
2023-05-02T07:35:51.485Z,47.2520
2023-05-02T07:36:53.203Z,47.2011
2023-05-02T07:37:54.997Z,47.1858
2023-05-02T07:38:57.448Z,47.1850
2023-05-02T07:40:01.598Z,47.2181
2023-05-02T07:41:05.779Z,47.1993
2023-05-02T07:42:09.674Z,47.2543
2023-05-02T07:43:13.563Z,47.2453
2023-05-02T07:44:17.438Z,47.2341
2023-05-02T07:45:21.492Z,47.2003
2023-05-02T07:46:25.554Z,47.2282
2023-05-02T07:47:33.434Z,47.2324
2023-05-02T07:48:32.029Z,47.2340
2023-05-02T07:49:35.907Z,47.2104
2023-05-02T07:50:39.823Z,47.2174
2023-05-02T07:51:44.581Z,47.2463
2023-05-02T07:52:48.875Z,47.2234
2023-05-02T07:53:52.278Z,47.1656
2023-05-02T07:54:56.181Z,47.1553
2023-05-02T07:56:00.134Z,47.1255
2023-05-02T07:57:04.148Z,47.1310
2023-05-02T07:58:08.041Z,47.1157
2023-05-02T07:59:12.176Z,47.0865
2023-05-02T08:00:16.135Z,47.0614
2023-05-02T08:01:20.027Z,47.0224
2023-05-02T08:02:25.852Z,47.0489
2023-05-02T08:03:24.800Z,47.0054
2023-05-02T08:04:30.610Z,47.0297
2023-05-02T08:05:29.297Z,47.0428
2023-05-02T08:06:33.252Z,46.9765
2023-05-02T08:07:37.390Z,47.0017
2023-05-02T08:08:41.330Z,46.9142
2023-05-02T08:09:45.243Z,46.9212
2023-05-02T08:10:49.281Z,46.8867
2023-05-02T08:11:53.178Z,46.9101
2023-05-02T08:12:59.384Z,46.9288
2023-05-02T08:13:58.490Z,46.9111
2023-05-02T08:14:58.916Z,44.5122
2023-05-02T08:16:02.914Z,38.4174
2023-05-02T08:17:06.790Z,35.1625
2023-05-02T08:18:10.804Z,38.0288
2023-05-02T08:19:14.726Z,45.1918
2023-05-02T08:20:18.596Z,51.3661
2023-05-02T08:21:22.517Z,56.2710
2023-05-02T08:22:26.390Z,59.5450
2023-05-02T08:23:30.308Z,57.3615
2023-05-02T08:24:34.210Z,60.1528
2023-05-02T08:25:38.156Z,63.8783
2023-05-02T08:26:42.073Z,66.9744
2023-05-02T08:27:45.987Z,69.4152
2023-05-02T08:28:49.890Z,64.2181
2023-05-02T08:29:53.839Z,52.7812
2023-05-02T08:30:57.724Z,50.3129
2023-05-02T08:32:01.728Z,54.8604
2023-05-02T08:33:05.706Z,59.4452
2023-05-02T08:34:09.614Z,63.4227
2023-05-02T08:35:13.493Z,65.9570
2023-05-02T08:36:17.378Z,58.3833
2023-05-02T08:37:21.301Z,52.8460
2023-05-02T08:38:25.186Z,56.3861
2023-05-02T08:39:29.082Z,60.7360
2023-05-02T08:40:41.571Z,64.5260
2023-05-02T08:41:37.461Z,67.4381
2023-05-02T08:42:41.375Z,61.0278
2023-05-02T08:43:45.406Z,52.1535
2023-05-02T08:44:49.298Z,53.9753
2023-05-02T08:45:53.202Z,58.4610
2023-05-02T08:46:57.160Z,62.5755
2023-05-02T08:48:01.146Z,66.0257
2023-05-02T08:49:05.015Z,64.1657
2023-05-02T08:50:09.188Z,53.7170
2023-05-02T08:51:13.087Z,52.5195
2023-05-02T08:52:16.995Z,56.8621
2023-05-02T08:53:20.927Z,61.2731
2023-05-02T08:54:25.025Z,64.9741
2023-05-02T08:55:28.946Z,66.1358
2023-05-02T08:56:32.868Z,57.1245
2023-05-02T08:57:37.097Z,55.1717
2023-05-02T08:58:41.046Z,59.2576
2023-05-02T08:59:44.910Z,63.2278
2023-05-02T09:00:48.831Z,66.5143
2023-05-02T09:01:52.723Z,67.2658
2023-05-02T09:02:56.636Z,57.2309
2023-05-02T09:04:00.609Z,52.5337
2023-05-02T09:05:04.514Z,56.3512
2023-05-02T09:06:08.432Z,60.7273
2023-05-02T09:07:12.328Z,64.4696
2023-05-02T09:08:16.213Z,67.0324
2023-05-02T09:09:20.127Z,59.7982
2023-05-02T09:10:24.039Z,52.8088
2023-05-02T09:11:27.991Z,55.8238
2023-05-02T09:12:32.087Z,60.2036
2023-05-02T09:13:35.996Z,64.0359
2023-05-02T09:14:39.875Z,67.0630
2023-05-02T09:15:43.781Z,61.7812
2023-05-02T09:16:47.793Z,52.2985
2023-05-02T09:17:51.982Z,53.7404
2023-05-02T09:18:55.918Z,58.3067
2023-05-02T09:19:59.936Z,62.4280
2023-05-02T09:21:03.849Z,65.8570
2023-05-02T09:22:07.768Z,64.1864
2023-05-02T09:23:11.682Z,53.9007
2023-05-02T09:24:15.614Z,53.3021
2023-05-02T09:25:19.753Z,57.7177
2023-05-02T09:26:23.675Z,61.8944
2023-05-02T09:27:27.532Z,65.4032
2023-05-02T09:28:31.430Z,65.7673
2023-05-02T09:29:35.349Z,55.5700
2023-05-02T09:30:39.296Z,52.2149
2023-05-02T09:31:55.616Z,56.3842
2023-05-02T09:32:47.748Z,60.8738
2023-05-02T09:33:51.640Z,64.3856
2023-05-02T09:34:55.552Z,66.4371
2023-05-02T09:35:59.438Z,56.4678
2023-05-02T09:37:03.363Z,49.0119
2023-05-02T09:38:07.231Z,52.4053
2023-05-02T09:39:11.132Z,57.3272
2023-05-02T09:40:15.065Z,61.6119
2023-05-02T09:41:18.945Z,65.1533
2023-05-02T09:42:22.858Z,61.8358
2023-05-02T09:43:26.755Z,53.4058
2023-05-02T09:44:30.752Z,55.3268
2023-05-02T09:45:35.362Z,59.6898
2023-05-02T09:46:39.404Z,63.5492
2023-05-02T09:47:43.304Z,66.7249
2023-05-02T09:48:47.162Z,63.3038
2023-05-02T09:49:51.069Z,52.2083
2023-05-02T09:50:54.989Z,50.2341
2023-05-02T09:51:58.890Z,54.9239
2023-05-02T09:53:02.928Z,59.4465
2023-05-02T09:54:06.925Z,63.3596
2023-05-02T09:55:10.789Z,65.3668
2023-05-02T09:56:14.710Z,56.8040
2023-05-02T09:57:18.643Z,52.5840
2023-05-02T09:58:22.535Z,56.5278
2023-05-02T09:59:26.425Z,60.7778
2023-05-02T10:00:30.347Z,64.4540
2023-05-02T10:01:34.269Z,66.7499
2023-05-02T10:02:38.258Z,58.7099
2023-05-02T10:03:42.187Z,50.9723
2023-05-02T10:04:46.144Z,53.7910
2023-05-02T10:05:50.071Z,58.3395
2023-05-02T10:06:53.978Z,62.3701
2023-05-02T10:07:57.893Z,65.6931
2023-05-02T10:09:01.817Z,61.7960
2023-05-02T10:10:05.733Z,53.3092
2023-05-02T10:11:09.633Z,55.3652
2023-05-02T10:12:13.564Z,59.6497
2023-05-02T10:13:17.475Z,63.4940
2023-05-02T10:14:21.491Z,66.6603
2023-05-02T10:15:25.374Z,63.1894
2023-05-02T10:16:29.290Z,54.1772
2023-05-02T10:17:33.550Z,55.8954
2023-05-02T10:18:37.458Z,60.3187
2023-05-02T10:19:41.370Z,64.1178
2023-05-02T10:20:45.257Z,67.1778
2023-05-02T10:21:49.178Z,63.9440
2023-05-02T10:22:53.100Z,56.1006
2023-05-02T10:23:56.993Z,58.3524
2023-05-02T10:25:01.201Z,62.3149
2023-05-02T10:26:05.365Z,65.7460
2023-05-02T10:27:09.295Z,68.3794
2023-05-02T10:28:13.194Z,62.9684
2023-05-02T10:29:17.145Z,53.0000
2023-05-02T10:30:21.039Z,54.1551
2023-05-02T10:31:24.960Z,58.5561
2023-05-02T10:32:29.219Z,62.5350
2023-05-02T10:33:33.125Z,65.8999
2023-05-02T10:34:36.988Z,64.1412
2023-05-02T10:35:40.959Z,53.3793
2023-05-02T10:36:44.826Z,51.7499
2023-05-02T10:37:48.896Z,56.2545
2023-05-02T10:38:52.792Z,60.6224
2023-05-02T10:39:56.693Z,64.3340
2023-05-02T10:41:00.576Z,65.5896
2023-05-02T10:42:04.488Z,56.6903
2023-05-02T10:43:08.414Z,54.9491
2023-05-02T10:44:12.323Z,59.0663
2023-05-02T10:45:16.234Z,62.9302
2023-05-02T10:46:20.189Z,66.1530
2023-05-02T10:47:24.152Z,66.6589
2023-05-02T10:48:28.104Z,56.2179
2023-05-02T10:49:32.029Z,50.1236
2023-05-02T10:50:36.138Z,53.8199
2023-05-02T10:51:40.044Z,58.4116
2023-05-02T10:52:43.951Z,62.4216
2023-05-02T10:53:47.893Z,65.5948
2023-05-02T10:54:51.810Z,60.1592
2023-05-02T10:55:55.717Z,52.0949
2023-05-02T10:56:59.625Z,54.6105
2023-05-02T10:58:03.529Z,59.0186
2023-05-02T10:59:07.435Z,62.9289
2023-05-02T11:00:07.632Z,66.0415
2023-05-02T11:01:11.587Z,62.9217
2023-05-02T11:02:15.708Z,53.1701
2023-05-02T11:03:19.642Z,53.9450
2023-05-02T11:04:23.532Z,58.3505
2023-05-02T11:05:27.399Z,62.3697
2023-05-02T11:06:31.323Z,65.7026
2023-05-02T11:07:35.234Z,64.3040
2023-05-02T11:08:39.167Z,54.2762
2023-05-02T11:09:43.056Z,54.0942
2023-05-02T11:10:46.986Z,58.4010
2023-05-02T11:11:50.899Z,62.3356
2023-05-02T11:12:54.797Z,65.6696
2023-05-02T11:13:58.698Z,65.2075
2023-05-02T11:15:02.790Z,54.6450
2023-05-02T11:16:06.920Z,51.9762
2023-05-02T11:17:10.786Z,56.3402
2023-05-02T11:18:14.811Z,60.5454
2023-05-02T11:19:18.678Z,64.1577
2023-05-02T11:20:22.549Z,65.8191
2023-05-02T11:21:26.442Z,56.7513
2023-05-02T11:22:30.350Z,51.0966
2023-05-02T11:23:34.219Z,54.7589
2023-05-02T11:24:38.142Z,59.2027
2023-05-02T11:25:42.098Z,63.0765
2023-05-02T11:26:45.978Z,65.9531
2023-05-02T11:27:49.917Z,59.7212
2023-05-02T11:28:53.809Z,52.9316
2023-05-02T11:29:57.723Z,56.0179
2023-05-02T11:31:01.614Z,60.2018
2023-05-02T11:32:05.554Z,63.8730
2023-05-02T11:33:09.470Z,66.6920
2023-05-02T11:34:13.333Z,60.7967
2023-05-02T11:35:17.228Z,51.4253
2023-05-02T11:36:21.147Z,52.9912
2023-05-02T11:37:25.049Z,57.5179
2023-05-02T11:38:28.992Z,61.5724
2023-05-02T11:39:32.890Z,64.9949
2023-05-02T11:40:36.799Z,63.1730
2023-05-02T11:41:40.724Z,52.9620
2023-05-02T11:42:44.632Z,52.4502
2023-05-02T11:43:48.542Z,56.9322
2023-05-02T11:44:52.461Z,61.1118
2023-05-02T11:45:56.463Z,64.6096
2023-05-02T11:47:00.385Z,64.8599
2023-05-02T11:48:04.349Z,54.9089
2023-05-02T11:49:09.334Z,52.7597
2023-05-02T11:50:08.754Z,56.9788
2023-05-02T11:51:12.680Z,60.9760
2023-05-02T11:52:16.607Z,64.5167
2023-05-02T11:53:20.512Z,66.0453
2023-05-02T11:54:24.434Z,56.8691
2023-05-02T11:55:28.580Z,51.7949
2023-05-02T11:56:32.467Z,55.6285
2023-05-02T11:57:36.437Z,59.8919
2023-05-02T11:58:40.347Z,63.6051
2023-05-02T11:59:44.259Z,66.1678
2023-05-02T12:00:48.179Z,58.9568
2023-05-02T12:01:52.086Z,51.7885
2023-05-02T12:02:56.186Z,54.8066
2023-05-02T12:04:00.140Z,59.2131
2023-05-02T12:05:04.331Z,63.0494
2023-05-02T12:06:08.516Z,66.1098
2023-05-02T12:07:12.523Z,60.9372
2023-05-02T12:08:16.397Z,52.9257
2023-05-02T12:09:20.299Z,55.3951
2023-05-02T12:10:24.190Z,59.6474
2023-05-02T12:11:28.060Z,63.3967
2023-05-02T12:12:31.975Z,66.4273
2023-05-02T12:13:35.896Z,62.0390
2023-05-02T12:14:39.802Z,51.9345
2023-05-02T12:15:43.737Z,52.5896
2023-05-02T12:16:47.833Z,57.1082
2023-05-02T12:17:51.834Z,61.1801
2023-05-02T12:18:55.715Z,64.6136
2023-05-02T12:19:59.876Z,63.9717
2023-05-02T12:21:03.768Z,53.3193
2023-05-02T12:22:07.673Z,50.1339
2023-05-02T12:23:11.577Z,54.5234
2023-05-02T12:24:15.484Z,58.9230
2023-05-02T12:25:19.384Z,62.7281
2023-05-02T12:26:23.317Z,65.0499
2023-05-02T12:27:27.238Z,57.0344
2023-05-02T12:28:31.145Z,50.5815
2023-05-02T12:29:35.050Z,54.0014
2023-05-02T12:30:38.969Z,58.5487
2023-05-02T12:31:42.877Z,62.4959
2023-05-02T12:32:46.761Z,65.5697
2023-05-02T12:33:50.762Z,61.1087
2023-05-02T12:34:54.903Z,58.9589
2023-05-02T12:35:58.811Z,62.3544
2023-05-02T12:37:02.747Z,65.5475
2023-05-02T12:38:06.705Z,68.1965
2023-05-02T12:39:10.600Z,68.2621
2023-05-02T12:40:14.666Z,57.3385
2023-05-02T12:41:18.570Z,49.3377
2023-05-02T12:42:22.460Z,52.2351
2023-05-02T12:43:26.583Z,57.0736
2023-05-02T12:44:30.436Z,61.2213
2023-05-02T12:45:34.358Z,64.6912
2023-05-02T12:46:38.253Z,61.7911
2023-05-02T12:47:42.199Z,52.9129
2023-05-02T12:48:46.838Z,54.4360